Ellis, Indiana
Current Conditions -  °F | °C
As of 1:35 PM on Saturday 25 Oct 2014 (Local Time) from KRSV Reporting Station
Clear Clear  
Wind Chill: 76°   Ceiling: Unl
Heat Index: 78°   Visibility: 10mi
Dew Point: 58°   Wind: 7mph
Humidity: 52%   Direction: 280°W
Pressure: 30.01"   Gusts: NA
Location:  39.0631°N, 87.2571°W
Report Text: KRSV 251735Z AUTO 28006KT 10SM CLR 25/14 A3001 RMK AO2 T02460142
Loading
Personal Weather Stations






























Interactive Weather Map
Tropical Storm Tracking
New forecast layout! Learn more

10-Day Weather Forecast

Advertisements
Track Severe Weather on mobile